Time;durP1;ratioP1;P1;durP2;ratioP2;P2;SDS_P1;SDS_P2;PMS_P1;PMS_P2;Temp;Humidity;BMP_temperature;BMP_pressure;BME280_temperature;BME280_humidity;BME280_pressure;Samples;Min_cycle;Max_cycle;Signal;HPM_P1;HPM_P2
2022/10/08 00:01:04;;;;;;;7.90;2.60;;;12.80;99.90;;;;;;6226820;23;20092;-77
2022/10/08 00:03:33;;;;;;;7.13;2.38;;;12.80;99.90;;;;;;6252859;23;20071;-75
2022/10/08 00:06:05;;;;;;;7.10;2.80;;;12.80;99.90;;;;;;6251925;23;20054;-78
2022/10/08 00:08:35;;;;;;;6.15;2.35;;;12.90;99.90;;;;;;6252150;23;20104;-76
2022/10/08 00:11:05;;;;;;;6.32;2.88;;;12.80;99.90;;;;;;6252331;23;20052;-76
2022/10/08 00:13:42;;;;;;;7.10;2.78;;;12.70;99.90;;;;;;6253049;23;20019;-76
2022/10/08 00:16:35;;;;;;;9.60;2.40;;;12.70;99.90;;;;;;6252349;23;20015;-78
2022/10/08 00:19:04;;;;;;;6.57;2.47;;;12.90;99.90;;;;;;6252206;23;20016;-77
2022/10/08 00:21:36;;;;;;;8.38;2.58;;;12.70;99.90;;;;;;6226379;23;20043;-77
2022/10/08 00:24:04;;;;;;;9.45;2.60;;;12.90;99.90;;;;;;6226874;23;20026;-78
2022/10/08 00:26:31;;;;;;;5.00;2.00;;;12.70;99.90;;;;;;6227392;23;20031;-79
2022/10/08 00:29:00;;;;;;;7.05;2.25;;;12.70;99.90;;;;;;6227290;23;20004;-76
2022/10/08 00:31:31;;;;;;;7.15;2.63;;;12.70;99.90;;;;;;6251827;23;20291;-77
2022/10/08 00:33:58;;;;;;;9.40;3.08;;;12.80;99.90;;;;;;6225233;23;20043;-77
2022/10/08 00:36:31;;;;;;;8.70;2.60;;;12.80;99.90;;;;;;6252333;23;20038;-77
2022/10/08 00:38:58;;;;;;;7.22;2.45;;;12.70;99.90;;;;;;6226773;23;20020;-76
2022/10/08 00:41:28;;;;;;;9.23;2.75;;;12.80;99.90;;;;;;6225788;23;20020;-78
2022/10/08 00:43:56;;;;;;;8.77;2.55;;;12.90;99.90;;;;;;6252303;23;20016;-76
2022/10/08 00:46:27;;;;;;;5.07;2.35;;;12.80;99.90;;;;;;6225916;23;20012;-77
2022/10/08 00:49:12;;;;;;;6.57;1.92;;;12.80;99.90;;;;;;6252768;23;20020;-77
2022/10/08 00:51:42;;;;;;;8.73;2.50;;;12.90;99.90;;;;;;6226954;23;20078;-79
2022/10/08 00:54:09;;;;;;;7.47;2.22;;;12.80;99.90;;;;;;6252287;23;20077;-77
2022/10/08 00:56:37;;;;;;;6.70;2.45;;;12.90;99.90;;;;;;6226922;23;20078;-77
2022/10/08 00:59:03;;;;;;;6.72;2.60;;;12.90;99.90;;;;;;6225954;23;20061;-79
2022/10/08 01:01:29;;;;;;;4.10;2.17;;;12.90;99.90;;;;;;6252183;23;20008;-77
2022/10/08 01:04:06;;;;;;;5.75;2.20;;;12.70;99.90;;;;;;6251683;23;20071;-78
2022/10/08 01:07:04;;;;;;;7.28;2.95;;;13.00;99.90;;;;;;6252792;23;20015;-77
2022/10/08 01:09:57;;;;;;;6.78;2.40;;;12.70;99.90;;;;;;6214584;23;20179;-76
2022/10/08 01:12:55;;;;;;;6.82;2.35;;;12.80;99.90;;;;;;6251341;23;20075;-77
2022/10/08 01:15:34;;;;;;;7.13;1.90;;;12.80;99.90;;;;;;6251738;23;20023;-77
2022/10/08 01:18:24;;;;;;;5.22;1.92;;;12.80;99.90;;;;;;6227034;23;20310;-78
2022/10/08 01:21:16;;;;;;;3.35;1.80;;;12.70;99.90;;;;;;6252178;23;20067;-79
2022/10/08 01:24:04;;;;;;;6.07;1.70;;;12.70;99.90;;;;;;6164114;23;20020;-76
2022/10/08 01:26:57;;;;;;;6.10;1.70;;;12.80;99.90;;;;;;6225252;23;20027;-79
2022/10/08 01:29:26;;;;;;;4.90;1.90;;;12.90;99.90;;;;;;6250909;23;20023;-76
2022/10/08 01:32:02;;;;;;;6.43;1.58;;;12.80;99.90;;;;;;6225132;23;20023;-77
2022/10/08 01:34:49;;;;;;;5.28;1.88;;;12.90;99.90;;;;;;6250935;23;20206;-76
2022/10/08 01:37:28;;;;;;;4.00;1.70;;;12.70;99.90;;;;;;6225633;23;20061;-77
2022/10/08 01:39:57;;;;;;;4.28;1.80;;;12.80;99.90;;;;;;6250964;23;20020;-80
2022/10/08 01:42:25;;;;;;;6.20;1.58;;;13.00;99.90;;;;;;6250581;23;20046;-80
2022/10/08 01:44:57;;;;;;;6.82;1.80;;;13.00;99.90;;;;;;6250935;23;20317;-76
2022/10/08 01:47:23;;;;;;;5.68;1.67;;;12.90;99.90;;;;;;6252876;23;20027;-79
2022/10/08 01:50:06;;;;;;;6.15;1.80;;;12.90;99.90;;;;;;6252748;23;20016;-78
2022/10/08 01:52:39;;;;;;;11.50;1.92;;;12.70;99.90;;;;;;6253393;23;20054;-76
2022/10/08 01:55:15;;;;;;;5.90;1.98;;;12.60;99.90;;;;;;6253083;23;20179;-78
2022/10/08 01:57:44;;;;;;;5.18;1.70;;;12.70;99.90;;;;;;6253245;23;20020;-77
2022/10/08 02:00:12;;;;;;;7.65;1.73;;;12.60;99.90;;;;;;6252396;23;20015;-78
2022/10/08 02:03:10;;;;;;;7.43;2.00;;;12.60;99.90;;;;;;6252825;23;20012;-77
2022/10/08 02:05:50;;;;;;;7.25;2.15;;;12.30;99.90;;;;;;6235996;23;20023;-77
2022/10/08 02:08:16;;;;;;;5.53;1.73;;;12.30;99.90;;;;;;6252693;23;20018;-78
2022/10/08 02:10:42;;;;;;;8.00;2.22;;;12.30;99.90;;;;;;6252819;23;20307;-78
2022/10/08 02:13:10;;;;;;;5.60;2.20;;;12.40;99.90;;;;;;6252321;23;20008;-76
2022/10/08 02:15:47;;;;;;;4.40;1.92;;;12.30;99.90;;;;;;6250959;23;20074;-78
2022/10/08 02:18:19;;;;;;;5.63;1.75;;;12.40;99.90;;;;;;6253018;23;20037;-76
2022/10/08 02:21:01;;;;;;;6.15;1.88;;;12.40;99.90;;;;;;6252981;23;20147;-79
2022/10/08 02:24:01;;;;;;;7.45;2.40;;;12.50;99.90;;;;;;6226933;23;20016;-78
2022/10/08 02:26:34;;;;;;;4.63;1.70;;;12.20;99.90;;;;;;6183516;23;20016;-81
2022/10/08 02:29:09;;;;;;;8.18;2.65;;;12.20;99.90;;;;;;6252592;23;20094;-76
2022/10/08 02:31:57;;;;;;;8.32;2.60;;;12.40;99.90;;;;;;6253278;23;20240;-76
2022/10/08 02:34:36;;;;;;;8.80;1.88;;;12.20;99.90;;;;;;6226539;23;20030;-77
2022/10/08 02:37:11;;;;;;;6.88;1.75;;;12.10;99.90;;;;;;6253122;23;20206;-79
2022/10/08 02:39:42;;;;;;;5.53;1.75;;;12.30;99.90;;;;;;6253224;23;20012;-76
2022/10/08 02:42:11;;;;;;;3.90;1.60;;;12.30;99.90;;;;;;6253162;23;20012;-79
2022/10/08 02:44:45;;;;;;;4.15;1.50;;;12.20;99.90;;;;;;6252584;23;20191;-76
2022/10/08 02:47:16;;;;;;;6.72;1.60;;;12.20;99.90;;;;;;6227376;23;20064;-76
2022/10/08 02:49:51;;;;;;;6.55;2.35;;;12.00;99.90;;;;;;6227182;23;20508;-77
2022/10/08 02:52:19;;;;;;;4.63;1.70;;;12.10;99.90;;;;;;6227404;23;20043;-76
2022/10/08 02:54:49;;;;;;;7.30;2.05;;;12.10;99.90;;;;;;6252578;23;20016;-77
2022/10/08 02:57:30;;;;;;;3.45;1.60;;;12.00;99.90;;;;;;6252591;23;20047;-76
2022/10/08 02:59:57;;;;;;;3.53;1.65;;;12.10;99.90;;;;;;6226842;23;20206;-76
2022/10/08 03:03:00;;;;;;;7.72;2.08;;;11.90;99.90;;;;;;6227558;23;20222;-77
2022/10/08 03:05:27;;;;;;;5.45;1.80;;;12.00;99.90;;;;;;6166235;23;20023;-77
2022/10/08 03:07:54;;;;;;;7.65;1.92;;;11.70;99.90;;;;;;6252503;23;20020;-77
2022/10/08 03:10:24;;;;;;;6.10;1.75;;;11.80;99.90;;;;;;6226717;23;20008;-78
2022/10/08 03:12:52;;;;;;;4.78;1.60;;;11.90;99.90;;;;;;6227254;23;20008;-77
2022/10/08 03:15:18;;;;;;;6.07;2.00;;;11.80;99.90;;;;;;6251901;23;20068;-78
2022/10/08 03:17:46;;;;;;;5.22;1.98;;;11.90;99.90;;;;;;6226967;23;20027;-78
2022/10/08 03:20:12;;;;;;;5.57;1.67;;;11.90;99.90;;;;;;6252428;23;20020;-77
2022/10/08 03:22:39;;;;;;;6.13;1.88;;;12.00;99.90;;;;;;6226961;23;20019;-79
2022/10/08 03:25:05;;;;;;;4.18;2.00;;;12.00;99.90;;;;;;6252358;23;20318;-77
2022/10/08 03:27:30;;;;;;;7.32;2.15;;;11.80;99.90;;;;;;6226889;23;20076;-78
2022/10/08 03:29:56;;;;;;;5.38;2.30;;;11.80;99.90;;;;;;6227466;23;20016;-79
2022/10/08 03:32:28;;;;;;;7.03;2.88;;;12.10;99.90;;;;;;6250750;23;20017;-76
2022/10/08 03:34:53;;;;;;;4.28;1.83;;;11.80;99.90;;;;;;6226512;23;20020;-79
2022/10/08 03:37:20;;;;;;;4.82;1.80;;;11.70;99.90;;;;;;6251722;23;20019;-76
2022/10/08 03:39:45;;;;;;;7.55;2.28;;;11.90;99.90;;;;;;6227101;23;20020;-77
2022/10/08 03:42:12;;;;;;;4.45;2.10;;;11.60;99.90;;;;;;6226362;23;20019;-80
2022/10/08 03:44:37;;;;;;;11.02;2.92;;;11.80;99.90;;;;;;6227449;23;20070;-77
2022/10/08 03:47:03;;;;;;;6.10;2.33;;;11.70;99.90;;;;;;6226799;23;20023;-79
2022/10/08 03:49:29;;;;;;;10.00;2.70;;;12.10;99.90;;;;;;6227068;23;20012;-78
2022/10/08 03:51:54;;;;;;;5.63;2.00;;;12.10;99.90;;;;;;6226620;23;20027;-78
2022/10/08 03:54:20;;;;;;;5.30;1.80;;;12.00;99.90;;;;;;6201322;23;20071;-76
2022/10/08 03:56:46;;;;;;;12.48;2.28;;;11.90;99.90;;;;;;6225955;23;20017;-78
2022/10/08 03:59:11;;;;;;;7.68;2.42;;;11.70;99.90;;;;;;6177171;23;20008;-78
2022/10/08 04:01:37;;;;;;;11.50;2.97;;;11.60;99.90;;;;;;6226971;23;20171;-78
2022/10/08 04:04:03;;;;;;;9.13;2.33;;;12.00;99.90;;;;;;6226748;23;20202;-77
2022/10/08 04:06:28;;;;;;;4.70;2.10;;;11.80;99.90;;;;;;6225711;23;20111;-77
2022/10/08 04:08:59;;;;;;;9.65;3.65;;;11.70;99.90;;;;;;6225651;23;20210;-77
2022/10/08 04:11:26;;;;;;;9.82;2.35;;;11.80;99.90;;;;;;6225092;23;20015;-77
2022/10/08 04:13:52;;;;;;;8.32;2.50;;;11.80;99.90;;;;;;6225444;23;20008;-79
2022/10/08 04:16:18;;;;;;;6.90;2.80;;;11.60;99.90;;;;;;6225944;23;20242;-78
2022/10/08 04:18:45;;;;;;;5.50;2.35;;;12.10;99.90;;;;;;6226356;23;20077;-77
2022/10/08 04:21:13;;;;;;;10.60;2.58;;;11.90;99.90;;;;;;6227277;23;20012;-77
2022/10/08 04:23:41;;;;;;;5.88;2.60;;;11.90;99.90;;;;;;6201205;23;20084;-78
2022/10/08 04:26:08;;;;;;;11.20;3.08;;;12.00;99.90;;;;;;6201219;23;20026;-79
2022/10/08 04:28:39;;;;;;;5.60;2.65;;;11.80;99.90;;;;;;6201631;23;20012;-77
2022/10/08 04:31:08;;;;;;;5.38;2.58;;;11.60;99.90;;;;;;6226775;23;20016;-78
2022/10/08 04:33:35;;;;;;;6.47;2.10;;;11.50;99.90;;;;;;6226455;23;20082;-76
2022/10/08 04:36:05;;;;;;;5.40;2.35;;;11.60;99.90;;;;;;6226610;23;20092;-77
2022/10/08 04:38:31;;;;;;;7.20;2.42;;;11.50;99.90;;;;;;6250960;23;20019;-76
2022/10/08 04:41:08;;;;;;;5.47;2.20;;;11.40;99.90;;;;;;6226032;23;20015;-77
2022/10/08 04:43:36;;;;;;;12.40;2.97;;;11.50;99.90;;;;;;6251131;23;20217;-77
2022/10/08 04:46:02;;;;;;;9.60;3.20;;;11.70;99.90;;;;;;6226936;23;20020;-78
2022/10/08 04:48:28;;;;;;;9.23;2.22;;;11.40;99.90;;;;;;6225683;23;20039;-78
2022/10/08 04:50:56;;;;;;;6.72;1.98;;;11.50;99.90;;;;;;6226571;23;20023;-78
2022/10/08 04:53:21;;;;;;;9.90;2.40;;;11.30;99.90;;;;;;6226346;23;20016;-78
2022/10/08 04:55:47;;;;;;;7.93;2.47;;;11.30;99.90;;;;;;6251702;23;20198;-78
2022/10/08 04:58:13;;;;;;;6.10;2.17;;;11.30;99.90;;;;;;6251949;23;20079;-78
2022/10/08 05:00:38;;;;;;;6.40;2.22;;;11.60;99.90;;;;;;6201047;23;20349;-78
2022/10/08 05:03:04;;;;;;;6.90;2.25;;;11.50;99.90;;;;;;6251841;23;20259;-79
2022/10/08 05:05:29;;;;;;;6.05;2.30;;;11.60;99.90;;;;;;6225755;23;20249;-81
2022/10/08 05:07:55;;;;;;;6.63;2.15;;;11.40;99.90;;;;;;6201566;23;20202;-78
2022/10/08 05:10:23;;;;;;;11.20;2.70;;;11.60;99.90;;;;;;6251938;23;20313;-78
2022/10/08 05:12:49;;;;;;;6.10;2.20;;;11.20;99.90;;;;;;6251682;23;20023;-78
2022/10/08 05:15:14;;;;;;;8.40;2.78;;;11.20;99.90;;;;;;6201965;23;20548;-78
2022/10/08 05:17:40;;;;;;;7.28;2.28;;;11.30;99.90;;;;;;6226046;23;20016;-77
2022/10/08 05:20:06;;;;;;;12.38;2.63;;;11.30;99.90;;;;;;6252740;23;20024;-79
2022/10/08 05:22:32;;;;;;;7.18;1.83;;;11.20;99.90;;;;;;6253963;23;20012;-78
2022/10/08 05:24:58;;;;;;;4.82;2.03;;;11.10;99.90;;;;;;6253489;23;20043;-78
2022/10/08 05:27:23;;;;;;;7.25;2.20;;;11.40;99.90;;;;;;6254093;23;20492;-77
2022/10/08 05:29:49;;;;;;;8.00;2.50;;;11.10;99.90;;;;;;6228254;23;20015;-77
2022/10/08 05:32:14;;;;;;;7.53;2.40;;;11.30;99.90;;;;;;6253766;23;20066;-78
2022/10/08 05:34:40;;;;;;;9.10;2.50;;;11.00;99.90;;;;;;6253405;23;20015;-76
2022/10/08 05:37:06;;;;;;;12.23;2.40;;;11.00;99.90;;;;;;6254052;23;20024;-77
2022/10/08 05:39:31;;;;;;;6.60;2.60;;;11.00;99.90;;;;;;6228093;23;20072;-77
2022/10/08 05:41:57;;;;;;;10.27;2.10;;;11.30;99.90;;;;;;6203449;23;20027;-77
2022/10/08 05:44:23;;;;;;;9.38;2.38;;;11.00;99.90;;;;;;6253249;23;20237;-76
2022/10/08 05:46:48;;;;;;;8.85;2.30;;;11.00;99.90;;;;;;6228292;23;20051;-76
2022/10/08 05:49:22;;;;;;;9.35;2.88;;;11.20;99.90;;;;;;6227923;23;20004;-77
2022/10/08 05:51:48;;;;;;;5.82;2.38;;;11.10;99.90;;;;;;6227501;23;20080;-76
2022/10/08 05:54:15;;;;;;;8.05;2.28;;;11.10;99.90;;;;;;6253472;23;20028;-76
2022/10/08 05:56:42;;;;;;;11.48;3.45;;;11.20;99.90;;;;;;6252887;23;20014;-76
2022/10/08 05:59:16;;;;;;;8.95;2.33;;;11.00;99.90;;;;;;6228160;23;20016;-76
2022/10/08 06:01:42;;;;;;;12.77;2.38;;;11.10;99.90;;;;;;6226798;23;20016;-78
2022/10/08 06:04:10;;;;;;;9.68;3.72;;;10.80;99.90;;;;;;6253654;23;20059;-79
2022/10/08 06:06:37;;;;;;;9.55;2.25;;;10.90;99.90;;;;;;6252684;23;20008;-77
2022/10/08 06:09:03;;;;;;;5.63;2.42;;;11.10;99.90;;;;;;6228062;23;20071;-77
2022/10/08 06:11:31;;;;;;;9.60;2.85;;;10.80;99.90;;;;;;6252600;23;20071;-77
2022/10/08 06:13:59;;;;;;;8.40;3.20;;;11.00;99.90;;;;;;6227971;23;20012;-78
2022/10/08 06:16:26;;;;;;;8.32;3.17;;;11.00;99.90;;;;;;6252643;23;20306;-78
2022/10/08 06:18:52;;;;;;;10.25;2.38;;;10.90;99.90;;;;;;6227640;23;20026;-76
2022/10/08 06:21:23;;;;;;;8.23;2.20;;;10.90;99.90;;;;;;6253540;23;20018;-76
2022/10/08 06:24:01;;;;;;;7.55;2.75;;;11.10;99.90;;;;;;6252475;23;20008;-76
2022/10/08 06:26:31;;;;;;;11.35;2.40;;;11.10;99.90;;;;;;6252006;23;20066;-76
2022/10/08 06:28:57;;;;;;;6.68;2.03;;;11.20;99.90;;;;;;6227052;23;20063;-76
2022/10/08 06:31:23;;;;;;;5.40;2.15;;;11.10;99.90;;;;;;6252004;23;20016;-77
2022/10/08 06:33:49;;;;;;;9.57;2.50;;;11.10;99.90;;;;;;6252014;23;20083;-77
2022/10/08 06:36:22;;;;;;;9.80;2.70;;;11.40;99.90;;;;;;6227180;23;20051;-76
2022/10/08 06:38:59;;;;;;;7.07;2.10;;;11.30;99.90;;;;;;6251884;23;20012;-76
2022/10/08 06:41:29;;;;;;;5.40;1.63;;;11.20;99.90;;;;;;6252069;23;20339;-77
2022/10/08 06:43:54;;;;;;;8.70;2.67;;;11.50;99.90;;;;;;6251353;23;20020;-76
2022/10/08 06:46:20;;;;;;;5.90;1.70;;;11.60;99.90;;;;;;6252374;23;20046;-76
2022/10/08 06:48:46;;;;;;;7.60;1.90;;;11.80;99.90;;;;;;6226968;23;20038;-77
2022/10/08 06:51:15;;;;;;;8.13;1.95;;;11.80;99.90;;;;;;6252607;23;20016;-76
2022/10/08 06:53:42;;;;;;;6.95;1.92;;;12.10;99.90;;;;;;6225870;23;20008;-76
2022/10/08 06:56:17;;;;;;;9.25;1.98;;;12.30;99.90;;;;;;6226229;23;20466;-78
2022/10/08 07:02:21;;;;;;;4.43;1.63;;;13.30;99.90;;;;;;6203045;23;20213;-78
2022/10/08 07:04:47;;;;;;;7.15;1.98;;;12.60;99.90;;;;;;6225346;23;20020;-76
2022/10/08 07:07:12;;;;;;;8.02;1.65;;;12.40;99.90;;;;;;6201203;23;20175;-76
2022/10/08 07:09:38;;;;;;;8.20;1.60;;;12.00;99.90;;;;;;6251711;23;20096;-75
2022/10/08 07:12:47;;;;;;;7.57;1.50;;;12.00;99.90;;;;;;6201773;23;20020;-80
2022/10/08 07:15:24;;;;;;;3.25;1.30;;;12.10;99.90;;;;;;6245880;23;20238;-80
2022/10/08 07:18:08;;;;;;;3.13;1.00;;;11.90;99.90;;;;;;6201109;23;20047;-80
2022/10/08 07:20:33;;;;;;;5.75;1.00;;;11.70;99.90;;;;;;6202844;23;20030;-78
2022/10/08 07:22:59;;;;;;;3.13;1.13;;;11.70;99.90;;;;;;6252219;23;20020;-78
2022/10/08 07:25:25;;;;;;;4.22;1.10;;;11.90;99.90;;;;;;6252439;23;20087;-80
2022/10/08 07:27:50;;;;;;;2.08;1.02;;;11.70;99.90;;;;;;6226709;23;20012;-75
2022/10/08 07:30:16;;;;;;;4.78;1.40;;;11.90;99.90;;;;;;6252067;23;20054;-80
2022/10/08 07:33:34;;;;;;;4.50;1.10;;;11.80;99.90;;;;;;6251543;23;20214;-83
2022/10/08 07:37:05;;;;;;;;;;;;;;;;;;;;;
2022/10/08 07:40:11;;;;;;;5.22;1.30;;;11.10;99.90;;;;;;6157336;22;20449;-80
2022/10/08 07:42:45;;;;;;;3.67;1.63;;;12.10;99.90;;;;;;6231745;23;20217;-79
2022/10/08 07:45:24;;;;;;;;;;;;;;;;;;;;;
2022/10/08 07:48:06;;;;;;;5.78;1.80;;;12.60;99.90;;;;;;6249965;23;20016;-77
2022/10/08 07:50:31;;;;;;;4.13;1.40;;;12.60;99.90;;;;;;6226640;23;20015;-76
2022/10/08 07:52:57;;;;;;;5.85;1.13;;;13.70;99.90;;;;;;6201013;23;20241;-77
2022/10/08 07:55:23;;;;;;;6.57;1.20;;;12.50;99.90;;;;;;6226632;23;20311;-77
2022/10/08 07:57:48;;;;;;;7.45;2.08;;;12.50;99.90;;;;;;6226260;23;20019;-77
2022/10/08 08:00:14;;;;;;;5.90;1.35;;;12.50;99.90;;;;;;6201284;23;20451;-78
2022/10/08 08:03:13;;;;;;;;;;;;;;;;;;;;;
2022/10/08 08:05:35;;;;;;;4.88;1.40;;;12.10;99.90;;;;;;6220813;23;20289;-78
2022/10/08 08:08:03;;;;;;;7.03;1.30;;;11.40;99.90;;;;;;6251936;23;20027;-77
2022/10/08 08:10:29;;;;;;;5.07;1.50;;;12.20;99.90;;;;;;6250588;23;20008;-79
2022/10/08 08:12:54;;;;;;;6.90;1.70;;;12.30;99.90;;;;;;6223358;23;20015;-78
2022/10/08 08:23:58;;;;;;;4.05;0.90;;;13.40;99.90;;;;;;6150186;23;20025;-79
2022/10/08 08:26:27;;;;;;;4.93;1.17;;;12.70;99.90;;;;;;5996426;23;20167;-79
2022/10/08 08:28:56;;;;;;;4.53;1.27;;;12.90;99.90;;;;;;6076965;23;20327;-80
2022/10/08 08:31:25;;;;;;;4.43;1.02;;;13.00;99.90;;;;;;6075352;23;20033;-80
2022/10/08 08:33:53;;;;;;;3.08;1.30;;;12.90;99.90;;;;;;6101704;23;20019;-80
2022/10/08 08:36:24;;;;;;;3.88;1.20;;;12.60;99.90;;;;;;6078573;23;20018;-79
2022/10/08 08:38:50;;;;;;;6.82;1.52;;;13.20;99.90;;;;;;6177245;23;20008;-79
2022/10/08 08:41:49;;;;;;;5.05;1.50;;;13.20;99.90;;;;;;6250527;23;20047;-80
2022/10/08 08:44:37;;;;;;;6.90;1.52;;;13.40;99.90;;;;;;6178080;23;20051;-78
2022/10/08 08:47:10;;;;;;;5.75;1.25;;;13.60;99.90;;;;;;6225502;23;20066;-78
2022/10/08 08:49:57;;;;;;;7.03;1.48;;;13.50;99.90;;;;;;6250721;23;20008;-79
2022/10/08 08:52:32;;;;;;;3.83;1.10;;;13.50;99.90;;;;;;6226283;23;20015;-80
2022/10/08 08:55:00;;;;;;;3.13;0.80;;;13.20;99.90;;;;;;6225198;23;20015;-79
2022/10/08 08:57:34;;;;;;;4.97;1.25;;;13.10;99.90;;;;;;6225942;23;20019;-79
2022/10/08 09:00:14;;;;;;;4.00;1.02;;;13.20;99.90;;;;;;6250494;23;20034;-79
2022/10/08 09:03:09;;;;;;;7.10;1.05;;;13.10;99.90;;;;;;6250988;23;20318;-79
2022/10/08 09:05:40;;;;;;;4.50;1.20;;;13.00;99.90;;;;;;6251072;23;20019;-79
2022/10/08 09:08:19;;;;;;;5.57;1.20;;;12.80;99.90;;;;;;6225491;23;20019;-79
2022/10/08 09:11:01;;;;;;;7.03;1.58;;;12.80;99.90;;;;;;6225490;23;20195;-79
2022/10/08 09:14:06;;;;;;;5.32;1.20;;;13.20;99.90;;;;;;6250977;23;20069;-79
2022/10/08 09:17:07;;;;;;;4.40;1.00;;;13.60;99.90;;;;;;6219181;23;20055;-79
2022/10/08 09:20:03;;;;;;;4.60;1.20;;;13.30;99.90;;;;;;6081041;23;20049;-79
2022/10/08 09:23:30;;;;;;;5.53;1.25;;;13.00;99.90;;;;;;6056100;23;20041;-79
2022/10/08 09:26:23;;;;;;;5.60;1.48;;;13.40;99.90;;;;;;6045525;23;20328;-79
2022/10/08 09:28:57;;;;;;;5.30;1.35;;;13.80;99.90;;;;;;6080270;23;20022;-79
2022/10/08 09:31:29;;;;;;;6.70;1.30;;;14.10;99.90;;;;;;6187671;23;20051;-80
2022/10/08 09:33:57;;;;;;;4.53;1.92;;;14.00;99.90;;;;;;6224780;23;20047;-79
2022/10/08 09:36:53;;;;;;;12.15;1.70;;;14.20;99.90;;;;;;6225484;23;20058;-79
2022/10/08 09:43:19;;;;;;;5.50;1.02;;;14.30;99.90;;;;;;6071763;23;20102;-79
2022/10/08 09:45:47;;;;;;;3.15;0.90;;;15.40;99.90;;;;;;6061260;23;20014;-79
2022/10/08 09:48:22;;;;;;;6.78;0.90;;;14.50;99.90;;;;;;6128976;23;20025;-79
2022/10/08 09:50:53;;;;;;;5.82;1.27;;;14.30;99.90;;;;;;6168913;23;20195;-79
2022/10/08 09:53:21;;;;;;;5.20;1.40;;;14.20;99.90;;;;;;6169798;23;20341;-79
2022/10/08 09:56:32;;;;;;;4.47;1.30;;;14.40;99.90;;;;;;6193414;23;20268;-78
2022/10/08 09:59:25;;;;;;;5.57;1.17;;;14.60;99.90;;;;;;6167922;23;20203;-77
2022/10/08 10:01:57;;;;;;;6.97;1.20;;;13.70;99.90;;;;;;6192454;23;20303;-78
2022/10/08 10:04:51;;;;;;;5.40;1.30;;;14.20;99.90;;;;;;6194482;23;20008;-76
2022/10/08 10:07:17;;;;;;;7.35;2.28;;;14.60;99.90;;;;;;6170182;23;20035;-76
2022/10/08 10:09:46;;;;;;;5.25;1.30;;;13.60;99.90;;;;;;6194975;23;20016;-77
2022/10/08 10:12:33;;;;;;;6.32;1.10;;;13.80;99.90;;;;;;6171054;23;20064;-78
2022/10/08 10:15:43;;;;;;;6.82;1.88;;;13.70;99.90;;;;;;6216675;23;20004;-78
2022/10/08 10:19:17;;;;;;;6.32;1.40;;;13.40;99.90;;;;;;6170287;23;20012;-78
2022/10/08 10:25:37;;;;;;;4.40;1.10;;;13.90;99.90;;;;;;6090889;23;20050;-77
2022/10/08 10:28:09;;;;;;;9.00;1.95;;;14.10;99.90;;;;;;6062265;23;20049;-76
2022/10/08 10:31:47;;;;;;;8.40;1.98;;;13.80;99.90;;;;;;6104054;23;20018;-78
2022/10/08 10:34:32;;;;;;;9.40;1.40;;;14.60;99.90;;;;;;6104337;23;20033;-76
2022/10/08 10:37:11;;;;;;;6.63;1.30;;;14.70;99.90;;;;;;6081359;23;20065;-77
2022/10/08 10:40:21;;;;;;;7.10;1.48;;;15.50;99.90;;;;;;6106506;23;20028;-77
2022/10/08 10:43:38;;;;;;;7.18;1.70;;;14.40;99.90;;;;;;6105084;22;20080;-78
2022/10/08 10:46:21;;;;;;;7.07;1.38;;;15.10;99.90;;;;;;6253226;23;20012;-76
2022/10/08 10:48:57;;;;;;;6.60;1.00;;;15.30;99.90;;;;;;6248950;23;20019;-76
2022/10/08 10:51:31;;;;;;;6.78;1.23;;;15.20;99.90;;;;;;6227214;23;20012;-78
2022/10/08 10:54:10;;;;;;;;;;;15.30;99.90;;;;;;6227047;23;20035;-79
2022/10/08 10:56:41;;;;;;;6.20;1.38;;;15.30;99.90;;;;;;6252265;23;19913;-78
2022/10/08 10:59:25;;;;;;;3.58;1.00;;;15.30;99.90;;;;;;6251643;23;20206;-79
2022/10/08 11:05:42;;;;;;;7.38;1.48;;;15.40;99.90;;;;;;6144954;22;20036;-79
2022/10/08 11:08:20;;;;;;;4.28;1.40;;;15.90;99.90;;;;;;6226316;23;20020;-79
2022/10/08 11:10:56;;;;;;;2.83;0.80;;;14.90;99.90;;;;;;6252532;23;20063;-80
2022/10/08 11:13:34;;;;;;;5.13;1.00;;;13.70;99.90;;;;;;6227627;23;20016;-79
2022/10/08 11:16:14;;;;;;;4.63;0.73;;;13.30;99.90;;;;;;6226651;23;20020;-79
2022/10/08 11:18:59;;;;;;;6.38;1.63;;;13.30;99.90;;;;;;6225310;23;20019;-81
2022/10/08 11:21:24;;;;;;;4.65;1.35;;;13.40;99.90;;;;;;6225526;23;20070;-78
2022/10/08 11:24:17;;;;;;;6.07;1.08;;;13.50;99.90;;;;;;6250268;23;20350;-78
2022/10/08 11:27:10;;;;;;;4.45;1.17;;;13.30;99.90;;;;;;6251782;23;20075;-77
2022/10/08 11:30:01;;;;;;;7.07;1.35;;;13.30;99.90;;;;;;6251771;23;20372;-78
2022/10/08 11:32:28;;;;;;;4.28;0.95;;;13.60;99.90;;;;;;6227727;23;20202;-78
2022/10/08 11:35:05;;;;;;;4.28;1.05;;;13.80;99.90;;;;;;6197995;23;20008;-78
2022/10/08 11:37:39;;;;;;;4.47;1.10;;;13.70;99.90;;;;;;6250114;23;20191;-78
2022/10/08 11:40:27;;;;;;;5.80;1.55;;;14.30;99.90;;;;;;6223674;23;20016;-80
2022/10/08 11:43:02;;;;;;;8.55;1.20;;;13.40;99.90;;;;;;6250476;23;20015;-78
2022/10/08 11:45:31;;;;;;;6.22;1.60;;;13.30;99.90;;;;;;6225941;23;20365;-79
2022/10/08 11:47:59;;;;;;;7.90;1.92;;;13.10;99.90;;;;;;6250241;23;20029;-79
2022/10/08 11:50:34;;;;;;;6.35;1.25;;;13.00;99.90;;;;;;6226260;23;20063;-79
2022/10/08 11:53:09;;;;;;;13.40;2.25;;;12.90;99.90;;;;;;6225179;23;20320;-78
2022/10/08 11:55:37;;;;;;;4.85;1.15;;;12.70;99.90;;;;;;6251700;23;20008;-78
2022/10/08 11:58:06;;;;;;;2.78;0.80;;;12.60;99.90;;;;;;6251216;23;20020;-79
2022/10/08 12:00:42;;;;;;;4.75;0.90;;;12.60;99.90;;;;;;6226573;23;20012;-79
2022/10/08 12:03:40;;;;;;;3.85;0.90;;;12.50;99.90;;;;;;6250666;23;20047;-79
2022/10/08 12:06:48;;;;;;;5.80;0.85;;;12.40;99.90;;;;;;6250859;23;20323;-77
2022/10/08 12:10:01;;;;;;;4.50;1.00;;;12.30;99.90;;;;;;6252860;22;20017;-78
2022/10/08 12:13:10;;;;;;;3.97;1.00;;;12.80;99.90;;;;;;6251416;23;20008;-78
2022/10/08 12:15:45;;;;;;;3.85;0.98;;;12.60;99.90;;;;;;6172835;23;20016;-78
2022/10/08 12:18:19;;;;;;;2.47;1.02;;;12.90;99.90;;;;;;6250120;23;20354;-78
2022/10/08 12:21:20;;;;;;;5.15;1.25;;;12.80;99.90;;;;;;6250452;23;20090;-77
2022/10/08 12:24:13;;;;;;;4.20;1.08;;;12.90;99.90;;;;;;6081264;23;20158;-77
2022/10/08 12:27:16;;;;;;;6.07;1.10;;;13.10;99.90;;;;;;6226208;23;20047;-78
2022/10/08 12:30:04;;;;;;;4.20;1.38;;;13.40;99.90;;;;;;6251219;23;20062;-78
2022/10/08 12:33:02;;;;;;;10.10;1.85;;;13.70;99.90;;;;;;6249869;23;20035;-77
2022/10/08 12:35:33;;;;;;;3.10;1.20;;;13.90;99.90;;;;;;6238245;23;20052;-79
2022/10/08 12:38:07;;;;;;;6.68;1.20;;;14.10;99.90;;;;;;6248835;23;20007;-78
2022/10/08 12:40:56;;;;;;;8.85;1.17;;;14.40;99.90;;;;;;6224251;23;20008;-78
2022/10/08 12:43:33;;;;;;;8.65;1.60;;;14.30;99.90;;;;;;6223908;23;20008;-78
2022/10/08 12:45:58;;;;;;;6.63;2.17;;;14.20;99.90;;;;;;6222089;23;20022;-78
2022/10/08 12:48:35;;;;;;;9.75;1.52;;;14.00;99.90;;;;;;6223681;23;20012;-78
2022/10/08 12:51:42;;;;;;;5.78;1.48;;;13.90;99.90;;;;;;6248730;23;20016;-78
2022/10/08 12:54:21;;;;;;;7.18;1.38;;;13.70;99.90;;;;;;6222889;23;20016;-78
2022/10/08 12:56:52;;;;;;;5.50;1.20;;;13.70;99.90;;;;;;6248959;23;20019;-78
2022/10/08 12:59:30;;;;;;;9.68;2.20;;;13.60;99.90;;;;;;6225159;23;20008;-78
2022/10/08 13:01:56;;;;;;;5.15;1.50;;;13.50;99.90;;;;;;6222979;23;20286;-77
2022/10/08 13:04:32;;;;;;;5.10;1.08;;;13.40;99.90;;;;;;6248981;23;20027;-78
2022/10/08 13:06:58;;;;;;;4.53;1.25;;;13.60;99.90;;;;;;6250173;23;20038;-78
2022/10/08 13:09:29;;;;;;;7.28;1.50;;;13.60;99.90;;;;;;6250533;23;20297;-77
2022/10/08 13:11:56;;;;;;;6.65;1.45;;;13.50;99.90;;;;;;6224775;23;20318;-77
2022/10/08 13:14:34;;;;;;;9.10;1.15;;;13.50;99.90;;;;;;6226888;23;20023;-77
2022/10/08 13:17:26;;;;;;;6.37;1.17;;;13.40;99.90;;;;;;6225246;23;20012;-78
2022/10/08 13:23:51;;;;;;;3.05;0.93;;;13.20;99.90;;;;;;6216197;23;20259;-76
2022/10/08 13:26:41;;;;;;;2.05;1.00;;;13.10;99.90;;;;;;6213550;23;20299;-77
2022/10/08 13:29:22;;;;;;;3.38;1.13;;;13.10;99.90;;;;;;6250591;23;20259;-76
2022/10/08 13:31:52;;;;;;;2.90;0.90;;;13.10;99.90;;;;;;6224943;23;20016;-77
2022/10/08 13:37:36;;;;;;;3.20;0.85;;;14.10;99.90;;;;;;6250247;23;20020;-76
2022/10/08 13:40:10;;;;;;;4.43;1.10;;;13.20;99.90;;;;;;6242987;23;20092;-76
2022/10/08 13:42:42;;;;;;;3.78;0.88;;;13.30;99.90;;;;;;6227255;23;20015;-76
2022/10/08 13:45:55;;;;;;;5.30;1.42;;;13.30;99.90;;;;;;6251823;23;20020;-77
2022/10/08 13:48:21;;;;;;;2.95;0.90;;;13.40;99.90;;;;;;6250931;23;20051;-76
2022/10/08 13:50:49;;;;;;;5.28;1.58;;;13.40;99.90;;;;;;6227759;23;20016;-76
2022/10/08 13:53:27;;;;;;;3.33;0.82;;;13.40;99.90;;;;;;6226694;23;20298;-78
2022/10/08 13:55:52;;;;;;;5.22;1.23;;;13.50;99.90;;;;;;6251615;23;20060;-76
2022/10/08 13:58:31;;;;;;;;;;;;;;;;;;;;;
2022/10/08 14:01:20;;;;;;;2.85;0.90;;;13.60;99.90;;;;;;6251825;23;20194;-77
2022/10/08 14:04:00;;;;;;;4.47;1.10;;;13.60;99.90;;;;;;6231925;23;20027;-77